createdAt,value
2018-11-12T00:00:03.868Z,99041.10
2018-11-12T00:02:32.430Z,99033.99
2018-11-12T00:05:00.972Z,99030.42
2018-11-12T00:07:29.565Z,99033.33
2018-11-12T00:09:58.316Z,99040.17
2018-11-12T00:12:26.922Z,99042.42
2018-11-12T00:14:55.068Z,99045.11
2018-11-12T00:17:23.743Z,99055.05
2018-11-12T00:19:52.212Z,99048.33
2018-11-12T00:22:20.672Z,99047.55
2018-11-12T00:24:48.942Z,99033.65
2018-11-12T00:27:17.447Z,99041.96
2018-11-12T00:29:46.176Z,99041.45
2018-11-12T00:32:14.576Z,99045.88
2018-11-12T00:34:42.688Z,99049.57
2018-11-12T00:37:11.568Z,99042.97
2018-11-12T00:39:39.860Z,99044.36
2018-11-12T00:42:07.974Z,99042.19
2018-11-12T00:44:36.192Z,99045.09
2018-11-12T00:47:05.150Z,99047.23
2018-11-12T00:49:33.542Z,99042.34
2018-11-12T00:52:01.849Z,99051.10
2018-11-12T00:54:30.537Z,99053.07
2018-11-12T00:56:59.188Z,99048.37
2018-11-12T00:59:27.424Z,99037.09
2018-11-12T01:01:56.237Z,99058.99
2018-11-12T01:04:24.664Z,99033.23
2018-11-12T01:06:53.164Z,99054.87
2018-11-12T01:09:21.839Z,99049.78
2018-11-12T01:11:50.099Z,99053.19
2018-11-12T01:14:18.821Z,99044.14
2018-11-12T01:16:47.864Z,99044.36
2018-11-12T01:19:16.365Z,99051.34
2018-11-12T01:21:44.879Z,99053.22
2018-11-12T01:24:13.333Z,99054.41
2018-11-12T01:26:41.808Z,99039.50
2018-11-12T01:29:09.929Z,99042.47
2018-11-12T01:31:38.792Z,99046.24
2018-11-12T01:34:07.101Z,99047.30
2018-11-12T01:36:35.528Z,99044.72
2018-11-12T01:39:06.232Z,99041.39
2018-11-12T01:41:34.693Z,99051.88
2018-11-12T01:44:03.500Z,99056.41
2018-11-12T01:46:31.728Z,99052.84
2018-11-12T01:49:00.529Z,99048.30
2018-11-12T01:51:28.927Z,99047.53
2018-11-12T01:53:57.232Z,99052.39
2018-11-12T01:56:25.815Z,99059.76
2018-11-12T01:58:54.492Z,99063.68
2018-11-12T02:01:22.963Z,99068.52
2018-11-12T02:03:52.098Z,99061.05
2018-11-12T02:06:20.221Z,99062.72
2018-11-12T02:08:48.676Z,99064.86
2018-11-12T02:11:17.385Z,99056.58
2018-11-12T02:13:45.992Z,99062.83
2018-11-12T02:16:14.316Z,99054.81
2018-11-12T02:18:43.157Z,99059.92
2018-11-12T02:21:11.675Z,99060.56
2018-11-12T02:23:40.140Z,99064.52
2018-11-12T02:26:09.049Z,99058.94
2018-11-12T02:28:37.277Z,99066.77
2018-11-12T02:31:06.193Z,99055.60
2018-11-12T02:33:34.701Z,99065.36
2018-11-12T02:36:03.307Z,99068.52
2018-11-12T02:38:31.644Z,99042.95
2018-11-12T02:40:59.981Z,99080.54
2018-11-12T02:43:28.787Z,99071.37
2018-11-12T02:45:57.264Z,99079.55
2018-11-12T02:48:25.756Z,99086.03
2018-11-12T02:50:54.920Z,99084.73
2018-11-12T02:53:23.301Z,99094.27
2018-11-12T02:55:51.420Z,99092.71
2018-11-12T02:58:20.291Z,99097.89
2018-11-12T03:00:48.577Z,99102.80
2018-11-12T03:03:16.855Z,99102.05
2018-11-12T03:05:45.745Z,99104.41
2018-11-12T03:08:14.076Z,99100.17
2018-11-12T03:10:42.566Z,99104.20
2018-11-12T03:13:11.375Z,99096.38
2018-11-12T03:15:39.660Z,99099.16
2018-11-12T03:18:08.145Z,99099.06
2018-11-12T03:20:36.864Z,99095.63
2018-11-12T03:23:05.317Z,99091.38
2018-11-12T03:25:33.806Z,99082.75
2018-11-12T03:28:02.006Z,99086.34
2018-11-12T03:30:30.269Z,99075.95
2018-11-12T03:32:58.610Z,99071.09
2018-11-12T03:35:27.452Z,99061.63
2018-11-12T03:37:55.799Z,99069.38
2018-11-12T03:40:24.481Z,99073.00
2018-11-12T03:42:53.095Z,99073.08
2018-11-12T03:45:23.073Z,99081.89
2018-11-12T03:47:53.054Z,99078.59
2018-11-12T03:50:23.806Z,99077.56
2018-11-12T03:52:53.617Z,99077.51
2018-11-12T03:55:22.829Z,99070.98
2018-11-12T03:57:51.177Z,99078.70
2018-11-12T04:00:22.190Z,99078.75
2018-11-12T04:02:50.463Z,99084.28
2018-11-12T04:05:19.147Z,99081.64
2018-11-12T04:07:51.305Z,99076.20
2018-11-12T04:10:20.665Z,99072.38
2018-11-12T04:12:49.410Z,99114.95
2018-11-12T04:15:23.069Z,99073.72
2018-11-12T04:17:51.442Z,99064.53
2018-11-12T04:20:20.849Z,99067.91
2018-11-12T04:23:03.405Z,99061.14
2018-11-12T04:25:33.141Z,99041.81
2018-11-12T04:28:02.116Z,99058.53
2018-11-12T04:30:30.474Z,99050.27
2018-11-12T04:32:58.804Z,99053.39
2018-11-12T04:35:27.283Z,99049.42
2018-11-12T04:37:55.781Z,99051.69
2018-11-12T04:40:24.422Z,99034.09
2018-11-12T04:42:52.869Z,99036.26
2018-11-12T04:45:23.003Z,99035.27
2018-11-12T04:47:52.263Z,99050.48
2018-11-12T04:50:21.665Z,99023.12
2018-11-12T04:52:50.281Z,99023.38
2018-11-12T04:55:19.989Z,99025.11
2018-11-12T04:57:48.554Z,99023.04
2018-11-12T05:00:19.408Z,99014.91
2018-11-12T05:02:48.261Z,99004.36
2018-11-12T05:05:18.442Z,98991.98
2018-11-12T05:07:47.023Z,99006.59
2018-11-12T05:10:18.265Z,99002.67
2018-11-12T05:12:48.984Z,98905.23
2018-11-12T05:15:18.419Z,99009.05
2018-11-12T05:17:47.297Z,99015.11
2018-11-12T05:20:19.512Z,99017.64
2018-11-12T05:22:48.133Z,98999.27
2018-11-12T05:25:17.946Z,99013.03
2018-11-12T05:27:46.627Z,99009.77
2018-11-12T05:30:17.101Z,99009.23
2018-11-12T05:32:45.405Z,98984.58
2018-11-12T05:35:15.481Z,99031.04
2018-11-12T05:37:44.083Z,99005.28
2018-11-12T05:40:18.236Z,98995.48
2018-11-12T05:42:47.138Z,99000.16
2018-11-12T05:45:19.345Z,99010.27
2018-11-12T05:47:48.662Z,99005.11
2018-11-12T05:50:19.194Z,98986.55
2018-11-12T05:52:53.183Z,99006.77
2018-11-12T05:55:22.675Z,99004.31
2018-11-12T05:57:51.996Z,99014.61
2018-11-12T06:00:27.589Z,99019.20
2018-11-12T06:02:56.063Z,99017.84
2018-11-12T06:05:26.680Z,99018.87
2018-11-12T06:07:57.792Z,99029.43
2018-11-12T06:10:31.705Z,99010.69
2018-11-12T06:13:02.899Z,99029.33
2018-11-12T06:15:34.483Z,99029.36
2018-11-12T06:18:03.416Z,99030.83
2018-11-12T06:20:32.852Z,99026.28
2018-11-12T06:23:01.602Z,99042.61
2018-11-12T06:25:31.555Z,99033.23
2018-11-12T06:28:00.077Z,99029.94
2018-11-12T06:30:30.358Z,99059.05
2018-11-12T06:32:58.811Z,99023.40
2018-11-12T06:35:27.316Z,99027.88
2018-11-12T06:37:55.902Z,99023.57
2018-11-12T06:40:25.603Z,98927.21
2018-11-12T06:42:54.207Z,99046.61
2018-11-12T06:45:25.972Z,99056.53
2018-11-12T06:47:55.448Z,99052.24
2018-11-12T06:50:25.125Z,99057.84
2018-11-12T06:52:53.731Z,99065.48
2018-11-12T06:55:22.853Z,99052.91
2018-11-12T06:57:51.444Z,99052.14
2018-11-12T07:00:21.829Z,99041.49
2018-11-12T07:02:50.716Z,98981.67
2018-11-12T07:05:19.423Z,99060.12
2018-11-12T07:07:47.749Z,99052.73
2018-11-12T07:10:17.895Z,99070.38
2018-11-12T07:12:47.028Z,99078.03
2018-11-12T07:15:17.972Z,99069.27
2018-11-12T07:17:46.949Z,99060.09
2018-11-12T07:20:18.307Z,99066.47
2018-11-12T07:22:46.651Z,99067.12
2018-11-12T07:25:16.391Z,99066.73
2018-11-12T07:27:44.633Z,99056.72
2018-11-12T07:30:15.918Z,99052.02
2018-11-12T07:32:45.159Z,99043.52
2018-11-12T07:35:14.490Z,99008.33
2018-11-12T07:37:43.649Z,99040.25
2018-11-12T07:40:13.183Z,99032.89
2018-11-12T07:42:41.945Z,99030.48
2018-11-12T07:45:14.265Z,99032.78
2018-11-12T07:47:43.747Z,99024.69
2018-11-12T07:50:13.682Z,99015.54
2018-11-12T07:52:42.446Z,99015.83
2018-11-12T07:55:13.085Z,99025.65
2018-11-12T07:57:41.909Z,99028.45
2018-11-12T08:00:13.475Z,99041.72
2018-11-12T08:02:42.968Z,99041.46
2018-11-12T08:05:12.184Z,99048.89
2018-11-12T08:07:41.244Z,99046.11
2018-11-12T08:10:11.915Z,99037.57
2018-11-12T08:12:41.224Z,99053.73
2018-11-12T08:15:11.146Z,99041.89
2018-11-12T08:17:39.669Z,99041.12
2018-11-12T08:20:10.577Z,99044.28
2018-11-12T08:22:39.060Z,99049.73
2018-11-12T08:25:08.233Z,99049.95
2018-11-12T08:27:36.766Z,99041.27
2018-11-12T08:30:06.786Z,99022.28
2018-11-12T08:32:35.158Z,99035.08
2018-11-12T08:35:03.987Z,99044.23
2018-11-12T08:37:32.338Z,99038.84
2018-11-12T08:40:01.358Z,99042.00
2018-11-12T08:42:30.214Z,99015.47
2018-11-12T08:44:58.332Z,99044.38
2018-11-12T08:47:26.481Z,99037.77
2018-11-12T08:49:54.919Z,99036.41
2018-11-12T08:52:23.067Z,99030.72
2018-11-12T08:54:51.309Z,99031.70
2018-11-12T08:57:19.656Z,99041.30
2018-11-12T08:59:47.952Z,99026.95
2018-11-12T09:02:16.091Z,99048.05
2018-11-12T09:04:44.644Z,99047.87
2018-11-12T09:07:13.495Z,99048.58
2018-11-12T09:09:41.804Z,99049.17
2018-11-12T09:12:10.021Z,99055.91
2018-11-12T09:14:38.449Z,99059.28
2018-11-12T09:17:06.559Z,99054.39
2018-11-12T09:19:34.944Z,99057.64
2018-11-12T09:22:03.091Z,99012.66
2018-11-12T09:24:31.406Z,99053.88
2018-11-12T09:26:59.823Z,99059.39
2018-11-12T09:29:28.438Z,99052.89
2018-11-12T09:31:56.884Z,99052.12
2018-11-12T09:34:24.941Z,99060.48
2018-11-12T09:36:53.123Z,99055.18
2018-11-12T09:39:22.205Z,99053.66
2018-11-12T09:41:51.082Z,99051.25
2018-11-12T09:44:19.230Z,99053.25
2018-11-12T09:46:47.285Z,99049.29
2018-11-12T09:49:15.901Z,99056.05
2018-11-12T09:51:43.889Z,99054.19
2018-11-12T09:54:12.555Z,99056.37
2018-11-12T09:56:40.619Z,99045.92
2018-11-12T09:59:09.059Z,99054.63
2018-11-12T10:01:38.568Z,99043.50
2018-11-12T10:04:07.355Z,99048.20
2018-11-12T10:06:35.898Z,99037.08
2018-11-12T10:09:06.246Z,99041.94
2018-11-12T10:11:34.609Z,99040.03
2018-11-12T10:14:02.987Z,99041.77
2018-11-12T10:16:32.382Z,99039.81
2018-11-12T10:18:57.557Z,99034.75
2018-11-12T10:21:25.947Z,99041.57
2018-11-12T10:23:54.309Z,99040.88
2018-11-12T10:26:22.455Z,99037.81
2018-11-12T10:28:50.812Z,99030.43
2018-11-12T10:31:19.328Z,99027.02
2018-11-12T10:33:48.153Z,99028.00
2018-11-12T10:36:16.422Z,99027.92
2018-11-12T10:38:44.787Z,99022.31
2018-11-12T10:41:12.948Z,99032.72
2018-11-12T10:43:41.206Z,99023.78
2018-11-12T10:46:09.585Z,98979.09
2018-11-12T10:48:37.988Z,99024.77
2018-11-12T10:51:06.191Z,99023.34
2018-11-12T10:53:34.843Z,99012.78
2018-11-12T10:56:02.986Z,99019.14
2018-11-12T10:58:31.163Z,99012.22
2018-11-12T11:01:05.243Z,99007.59
2018-11-12T11:03:38.742Z,99009.70
2018-11-12T11:06:07.691Z,99007.17
2018-11-12T11:08:35.788Z,99014.50
2018-11-12T11:11:04.148Z,99018.91
2018-11-12T11:13:32.574Z,99004.89
2018-11-12T11:16:00.806Z,99011.32
2018-11-12T11:18:29.332Z,99011.45
2018-11-12T11:20:57.856Z,99013.25
2018-11-12T11:23:25.930Z,99015.16
2018-11-12T11:25:54.129Z,98971.91
2018-11-12T11:28:22.287Z,99019.38
2018-11-12T11:30:50.604Z,98995.97
2018-11-12T11:33:19.350Z,99011.34
2018-11-12T11:35:47.438Z,99007.04
2018-11-12T11:38:15.612Z,99013.55
2018-11-12T11:40:44.457Z,99017.66
2018-11-12T11:43:12.841Z,99021.77
2018-11-12T11:45:41.178Z,99019.22
2018-11-12T11:48:09.809Z,99025.87
2018-11-12T11:50:38.152Z,99027.20
2018-11-12T11:53:06.444Z,99022.64
2018-11-12T11:55:35.044Z,99010.12
2018-11-12T11:58:03.657Z,99024.20
2018-11-12T12:00:31.934Z,99016.28
2018-11-12T12:03:00.341Z,99029.83
2018-11-12T12:05:28.852Z,99032.55
2018-11-12T12:07:57.475Z,99037.36
2018-11-12T12:10:26.077Z,99032.83
2018-11-12T12:12:54.162Z,99037.60
2018-11-12T12:15:23.016Z,99044.17
2018-11-12T12:17:51.144Z,99028.97
2018-11-12T12:20:21.725Z,99045.85
2018-11-12T12:22:50.125Z,99040.98
2018-11-12T12:25:19.311Z,99038.91
2018-11-12T12:27:48.347Z,99037.15
2018-11-12T12:30:18.733Z,99045.05
2018-11-12T12:32:47.686Z,99038.83
2018-11-12T12:35:15.788Z,99032.81
2018-11-12T12:37:44.575Z,99039.38
2018-11-12T12:40:14.262Z,99038.59
2018-11-12T12:42:42.981Z,99037.81
2018-11-12T12:45:12.891Z,99051.05
2018-11-12T12:47:41.472Z,99039.20
2018-11-12T12:50:11.379Z,99040.09
2018-11-12T12:52:39.493Z,99041.11
2018-11-12T12:55:09.776Z,99045.31
2018-11-12T12:57:37.943Z,99047.30
2018-11-12T13:00:09.694Z,99038.38
2018-11-12T13:02:39.040Z,99040.10
2018-11-12T13:05:07.679Z,99040.25
2018-11-12T13:07:36.571Z,99040.37
2018-11-12T13:10:07.107Z,99036.52
2018-11-12T13:12:35.520Z,99041.84
2018-11-12T13:15:04.850Z,99052.22
2018-11-12T13:17:33.581Z,99049.67
2018-11-12T13:20:02.209Z,99057.52
2018-11-12T13:22:30.448Z,99053.19
2018-11-12T13:24:58.821Z,98977.50
2018-11-12T13:27:27.232Z,99050.59
2018-11-12T13:29:55.912Z,99056.02
2018-11-12T13:32:24.202Z,99043.58
2018-11-12T13:34:52.269Z,99064.89
2018-11-12T13:37:21.230Z,99068.03
2018-11-12T13:39:49.473Z,99070.79
2018-11-12T13:42:17.582Z,99086.16
2018-11-12T13:44:46.421Z,99059.96
2018-11-12T13:47:14.525Z,99055.98
2018-11-12T13:49:42.894Z,99035.99
2018-11-12T13:52:11.578Z,99083.81
2018-11-12T13:54:39.674Z,99090.75
2018-11-12T13:57:07.899Z,99089.71
2018-11-12T13:59:36.588Z,99085.20
2018-11-12T14:02:05.138Z,99087.72
2018-11-12T14:04:33.647Z,99084.85
2018-11-12T14:07:02.465Z,99073.39
2018-11-12T14:09:30.846Z,99092.14
2018-11-12T14:11:59.898Z,99070.78
2018-11-12T14:14:28.774Z,99084.75
2018-11-12T14:16:57.410Z,99101.83
2018-11-12T14:19:25.648Z,99106.80
2018-11-12T14:21:54.240Z,99101.13
2018-11-12T14:24:22.322Z,99105.95
2018-11-12T14:26:50.488Z,99077.09
2018-11-12T14:29:19.016Z,99095.09
2018-11-12T14:31:47.153Z,99101.66
2018-11-12T14:34:15.721Z,99098.91
2018-11-12T14:36:44.485Z,99101.16
2018-11-12T14:39:12.537Z,99101.45
2018-11-12T14:41:40.983Z,99100.73
2018-11-12T14:44:09.851Z,99104.36
2018-11-12T14:46:37.996Z,99105.55
2018-11-12T14:49:06.188Z,99101.34
2018-11-12T14:51:34.761Z,99108.57
2018-11-12T14:54:04.019Z,99107.22
2018-11-12T14:56:32.660Z,99104.25
2018-11-12T14:59:01.052Z,99102.55
2018-11-12T15:01:29.131Z,99066.58
2018-11-12T15:03:57.359Z,99100.27
2018-11-12T15:06:25.513Z,99108.54
2018-11-12T15:08:53.668Z,99046.14
2018-11-12T15:11:22.193Z,99109.47
2018-11-12T15:13:50.357Z,99113.98
2018-11-12T15:16:18.583Z,99112.79
2018-11-12T15:18:46.831Z,99109.87
2018-11-12T15:21:15.711Z,99077.98
2018-11-12T15:23:43.922Z,99108.81
2018-11-12T15:26:12.130Z,99105.69
2018-11-12T15:28:40.733Z,99095.42
2018-11-12T15:31:08.959Z,99096.25
2018-11-12T15:33:37.237Z,99092.72
2018-11-12T15:36:05.884Z,99090.73
2018-11-12T15:38:34.007Z,99088.59
2018-11-12T15:41:02.194Z,99097.27
2018-11-12T15:43:30.332Z,99096.52
2018-11-12T15:45:58.693Z,99097.08
2018-11-12T15:48:26.851Z,99088.97
2018-11-12T15:50:55.452Z,99100.05
2018-11-12T15:53:23.660Z,99099.66
2018-11-12T15:55:51.975Z,99100.42
2018-11-12T15:58:20.158Z,99109.35
2018-11-12T16:00:48.412Z,99101.83
2018-11-12T16:03:17.304Z,99075.89
2018-11-12T16:05:46.792Z,99110.14
2018-11-12T16:08:15.007Z,99100.88
2018-11-12T16:10:43.265Z,99116.02
2018-11-12T16:13:11.689Z,99115.38
2018-11-12T16:15:39.934Z,99096.19
2018-11-12T16:18:08.376Z,99118.09
2018-11-12T16:20:37.714Z,99063.42
2018-11-12T16:23:06.145Z,99134.47
2018-11-12T16:25:34.234Z,99050.45
2018-11-12T16:28:03.014Z,99131.30
2018-11-12T16:30:31.551Z,99132.97
2018-11-12T16:33:06.749Z,99035.23
2018-11-12T16:35:39.066Z,99167.05
2018-11-12T16:38:09.122Z,99140.12
2018-11-12T16:40:38.074Z,99145.11
2018-11-12T16:43:06.764Z,99147.14
2018-11-12T16:45:34.841Z,99144.22
2018-11-12T16:48:03.221Z,99153.05
2018-11-12T16:50:31.935Z,99161.98
2018-11-12T16:53:00.189Z,99116.75
2018-11-12T16:55:28.323Z,99124.55
2018-11-12T16:57:57.358Z,99169.64
2018-11-12T17:00:25.589Z,99171.83
2018-11-12T17:02:53.767Z,99177.05
2018-11-12T17:05:23.564Z,99175.76
2018-11-12T17:07:51.680Z,99175.02
2018-11-12T17:10:21.572Z,99159.98
2018-11-12T17:12:50.272Z,99168.13
2018-11-12T17:15:18.513Z,99166.08
2018-11-12T17:17:51.058Z,99159.83
2018-11-12T17:20:20.536Z,99173.75
2018-11-12T17:22:48.653Z,99166.75
2018-11-12T17:25:17.597Z,99148.14
2018-11-12T17:27:46.770Z,99227.74
2018-11-12T17:30:17.313Z,99172.25
2018-11-12T17:32:46.179Z,99175.04
2018-11-12T17:35:16.190Z,99169.83
2018-11-12T17:37:48.453Z,99170.72
2018-11-12T17:40:17.820Z,99173.53
2018-11-12T17:42:47.300Z,99178.77
2018-11-12T17:45:16.632Z,99183.47
2018-11-12T17:47:46.005Z,99185.39
2018-11-12T17:50:15.331Z,99187.81
2018-11-12T17:52:43.588Z,99180.68
2018-11-12T17:55:12.145Z,99127.67
2018-11-12T17:57:40.696Z,99194.45
2018-11-12T18:00:15.100Z,99192.27
2018-11-12T18:02:43.207Z,99183.61
2018-11-12T18:05:11.708Z,99183.47
2018-11-12T18:07:40.785Z,99187.45
2018-11-12T18:10:09.697Z,99193.06
2018-11-12T18:12:38.681Z,99180.83
2018-11-12T18:15:10.427Z,99189.50
2018-11-12T18:17:38.897Z,99189.35
2018-11-12T18:20:14.502Z,99198.92
2018-11-12T18:22:42.868Z,99212.56
2018-11-12T18:25:11.564Z,99220.98
2018-11-12T18:27:40.178Z,99220.36
2018-11-12T18:30:10.755Z,99226.20
2018-11-12T18:32:39.366Z,99226.61
2018-11-12T18:35:08.449Z,99224.69
2018-11-12T18:37:37.153Z,99227.88
2018-11-12T18:40:06.851Z,99185.41
2018-11-12T18:42:35.308Z,99241.14
2018-11-12T18:45:03.420Z,99217.43
2018-11-12T18:47:31.725Z,99219.58
2018-11-12T18:49:59.960Z,99250.19
2018-11-12T18:52:28.042Z,99252.09
2018-11-12T18:54:56.654Z,99249.94
2018-11-12T18:57:25.948Z,99190.46
2018-11-12T18:59:54.095Z,99254.00
2018-11-12T19:02:22.799Z,99247.13
2018-11-12T19:04:51.082Z,99250.56
2018-11-12T19:07:19.201Z,99263.70
2018-11-12T19:09:47.598Z,99291.87
2018-11-12T19:12:15.877Z,99279.61
2018-11-12T19:14:44.179Z,99280.00
2018-11-12T19:17:12.742Z,99274.03
2018-11-12T19:19:41.020Z,99239.27
2018-11-12T19:22:09.130Z,99310.34
2018-11-12T19:24:37.239Z,99310.23
2018-11-12T19:27:05.367Z,99309.06
2018-11-12T19:29:33.474Z,99323.36
2018-11-12T19:32:02.625Z,99291.64
2018-11-12T19:34:30.819Z,99323.09
2018-11-12T19:36:58.968Z,99326.52
2018-11-12T19:39:27.061Z,99314.29
2018-11-12T19:41:55.238Z,99299.52
2018-11-12T19:44:23.842Z,99242.45
2018-11-12T19:46:51.988Z,99278.22
2018-11-12T19:49:20.614Z,99248.19
2018-11-12T19:51:49.220Z,99279.72
2018-11-12T19:54:17.360Z,99250.73
2018-11-12T19:56:45.452Z,99278.18
2018-11-12T19:59:14.093Z,99283.77
2018-11-12T20:01:42.259Z,99279.80
2018-11-12T20:04:10.435Z,99283.11
2018-11-12T20:06:39.070Z,99280.80
2018-11-12T20:09:08.362Z,99284.61
2018-11-12T20:11:36.421Z,99303.22
2018-11-12T20:14:04.798Z,99276.83
2018-11-12T20:16:33.073Z,99286.52
2018-11-12T20:19:01.386Z,99283.72
2018-11-12T20:21:29.995Z,99276.47
2018-11-12T20:23:58.434Z,99281.03
2018-11-12T20:26:26.630Z,99229.23
2018-11-12T20:28:55.790Z,99291.11
2018-11-12T20:31:24.182Z,99294.92
2018-11-12T20:33:52.407Z,99300.44
2018-11-12T20:36:21.017Z,99295.84
2018-11-12T20:38:49.297Z,99268.95
2018-11-12T20:41:17.459Z,99278.95
2018-11-12T20:43:46.051Z,99281.25
2018-11-12T20:46:14.154Z,99263.99
2018-11-12T20:48:42.423Z,99285.55
2018-11-12T20:51:11.077Z,99281.08
2018-11-12T20:53:39.812Z,99290.63
2018-11-12T20:56:08.468Z,99284.27
2018-11-12T20:58:37.163Z,99281.83
2018-11-12T21:01:05.294Z,99278.52
2018-11-12T21:03:33.410Z,99193.50
2018-11-12T21:06:01.892Z,99288.97
2018-11-12T21:08:30.509Z,99296.21
2018-11-12T21:10:58.632Z,99295.31
2018-11-12T21:13:27.025Z,99192.16
2018-11-12T21:15:55.147Z,99287.66
2018-11-12T21:18:23.333Z,99287.53
2018-11-12T21:20:51.868Z,99288.04
2018-11-12T21:23:20.813Z,99288.43
2018-11-12T21:25:48.929Z,99326.36
2018-11-12T21:28:17.491Z,99283.33
2018-11-12T21:30:45.650Z,99281.93
2018-11-12T21:33:13.739Z,99284.23
2018-11-12T21:35:41.872Z,99266.22
2018-11-12T21:38:10.216Z,99284.23
2018-11-12T21:40:39.024Z,99288.04
2018-11-12T21:43:07.777Z,99296.57
2018-11-12T21:45:36.446Z,99304.59
2018-11-12T21:48:05.317Z,99295.05
2018-11-12T21:50:34.052Z,99294.91
2018-11-12T21:53:02.290Z,99292.99
2018-11-12T21:55:30.575Z,99291.09
2018-11-12T21:57:59.099Z,99290.42
2018-11-12T22:00:28.314Z,99312.19
2018-11-12T22:03:00.275Z,99290.91
2018-11-12T22:05:29.723Z,99293.44
2018-11-12T22:07:57.848Z,99299.55
2018-11-12T22:10:26.054Z,99300.55
2018-11-12T22:12:54.610Z,99304.99
2018-11-12T22:15:23.038Z,99312.73
2018-11-12T22:17:52.637Z,99307.13
2018-11-12T22:20:22.435Z,99310.67
2018-11-12T22:22:50.608Z,99350.66
2018-11-12T22:25:20.041Z,99314.22
2018-11-12T22:27:49.106Z,99311.56
2018-11-12T22:30:18.811Z,99282.41
2018-11-12T22:32:48.034Z,99311.69
2018-11-12T22:35:16.134Z,99319.59
2018-11-12T22:37:44.793Z,99335.89
2018-11-12T22:40:14.015Z,99332.97
2018-11-12T22:42:43.128Z,99341.03
2018-11-12T22:45:13.738Z,99334.56
2018-11-12T22:47:42.287Z,99333.56
2018-11-12T22:50:10.928Z,99262.88
2018-11-12T22:52:39.834Z,99333.83
2018-11-12T22:55:08.825Z,99336.01
2018-11-12T22:57:37.727Z,99351.16
2018-11-12T23:00:16.037Z,99337.41
2018-11-12T23:02:44.805Z,99335.50
2018-11-12T23:05:13.380Z,99335.63
2018-11-12T23:07:41.502Z,99329.75
2018-11-12T23:10:09.760Z,99325.58
2018-11-12T23:12:38.340Z,99328.23
2018-11-12T23:15:07.737Z,99326.59
2018-11-12T23:17:36.829Z,99321.38
2018-11-12T23:20:07.136Z,99310.52
2018-11-12T23:22:35.609Z,99324.92
2018-11-12T23:25:03.942Z,99337.30
2018-11-12T23:27:32.425Z,99335.38
2018-11-12T23:30:00.974Z,99343.52
2018-11-12T23:32:29.721Z,99340.34
2018-11-12T23:34:57.941Z,99346.95
2018-11-12T23:37:26.341Z,99330.22
2018-11-12T23:39:54.636Z,99339.59
2018-11-12T23:42:22.869Z,99335.77
2018-11-12T23:44:51.313Z,99334.22
2018-11-12T23:47:20.198Z,99349.75
2018-11-12T23:49:48.674Z,99345.16
2018-11-12T23:52:16.912Z,99319.16
2018-11-12T23:54:45.802Z,99327.02
2018-11-12T23:57:14.088Z,99330.83
2018-11-12T23:59:42.339Z,99330.05
